sensor_id;sensor_type;location;lat;lon;timestamp;P1;durP1;ratioP1;P2;durP2;ratioP2
42600;SDS011;28229;48.856;9.088;2023-04-06T00:02:06;12.53;;;9.27;;
42600;SDS011;28229;48.856;9.088;2023-04-06T00:04:32;12.03;;;9.17;;
42600;SDS011;28229;48.856;9.088;2023-04-06T00:07:08;11.47;;;9.07;;
42600;SDS011;28229;48.856;9.088;2023-04-06T00:09:34;11.80;;;9.07;;
42600;SDS011;28229;48.856;9.088;2023-04-06T00:12:00;10.77;;;8.93;;
42600;SDS011;28229;48.856;9.088;2023-04-06T00:14:27;13.23;;;9.10;;
42600;SDS011;28229;48.856;9.088;2023-04-06T00:16:53;11.17;;;9.00;;
42600;SDS011;28229;48.856;9.088;2023-04-06T00:19:19;10.53;;;8.70;;
42600;SDS011;28229;48.856;9.088;2023-04-06T00:21:45;12.27;;;8.80;;
42600;SDS011;28229;48.856;9.088;2023-04-06T00:24:11;10.80;;;8.37;;
42600;SDS011;28229;48.856;9.088;2023-04-06T00:26:38;13.70;;;8.83;;
42600;SDS011;28229;48.856;9.088;2023-04-06T00:29:04;10.47;;;8.77;;
42600;SDS011;28229;48.856;9.088;2023-04-06T00:31:30;10.57;;;8.50;;
42600;SDS011;28229;48.856;9.088;2023-04-06T00:33:57;10.50;;;8.77;;
42600;SDS011;28229;48.856;9.088;2023-04-06T00:36:24;9.87;;;8.67;;
42600;SDS011;28229;48.856;9.088;2023-04-06T00:38:51;11.00;;;8.90;;
42600;SDS011;28229;48.856;9.088;2023-04-06T00:41:17;12.57;;;9.30;;
42600;SDS011;28229;48.856;9.088;2023-04-06T00:43:44;14.37;;;8.97;;
42600;SDS011;28229;48.856;9.088;2023-04-06T00:46:10;12.43;;;9.87;;
42600;SDS011;28229;48.856;9.088;2023-04-06T00:48:36;11.30;;;8.67;;
42600;SDS011;28229;48.856;9.088;2023-04-06T00:51:03;11.20;;;8.40;;
42600;SDS011;28229;48.856;9.088;2023-04-06T00:53:29;10.67;;;8.17;;
42600;SDS011;28229;48.856;9.088;2023-04-06T00:55:57;10.00;;;8.40;;
42600;SDS011;28229;48.856;9.088;2023-04-06T00:58:24;11.10;;;8.30;;
42600;SDS011;28229;48.856;9.088;2023-04-06T01:00:57;11.57;;;8.23;;
42600;SDS011;28229;48.856;9.088;2023-04-06T01:03:24;13.27;;;8.53;;
42600;SDS011;28229;48.856;9.088;2023-04-06T01:05:51;12.47;;;8.47;;
42600;SDS011;28229;48.856;9.088;2023-04-06T01:08:25;11.57;;;8.33;;
42600;SDS011;28229;48.856;9.088;2023-04-06T01:10:59;12.50;;;8.50;;
42600;SDS011;28229;48.856;9.088;2023-04-06T01:13:29;10.60;;;8.77;;
42600;SDS011;28229;48.856;9.088;2023-04-06T01:16:00;14.40;;;8.50;;
42600;SDS011;28229;48.856;9.088;2023-04-06T01:18:32;9.73;;;8.07;;
42600;SDS011;28229;48.856;9.088;2023-04-06T01:21:11;10.97;;;8.20;;
42600;SDS011;28229;48.856;9.088;2023-04-06T01:23:46;10.63;;;8.73;;
42600;SDS011;28229;48.856;9.088;2023-04-06T01:26:15;11.73;;;8.10;;
42600;SDS011;28229;48.856;9.088;2023-04-06T01:28:42;10.27;;;8.03;;
42600;SDS011;28229;48.856;9.088;2023-04-06T01:31:22;10.00;;;7.63;;
42600;SDS011;28229;48.856;9.088;2023-04-06T01:33:54;10.73;;;8.37;;
42600;SDS011;28229;48.856;9.088;2023-04-06T01:36:23;13.13;;;8.93;;
42600;SDS011;28229;48.856;9.088;2023-04-06T01:38:58;14.00;;;8.60;;
42600;SDS011;28229;48.856;9.088;2023-04-06T01:41:32;10.33;;;8.90;;
42600;SDS011;28229;48.856;9.088;2023-04-06T01:43:58;11.70;;;9.00;;
42600;SDS011;28229;48.856;9.088;2023-04-06T01:46:27;11.23;;;8.93;;
42600;SDS011;28229;48.856;9.088;2023-04-06T01:48:53;10.47;;;8.70;;
42600;SDS011;28229;48.856;9.088;2023-04-06T01:51:40;12.20;;;7.93;;
42600;SDS011;28229;48.856;9.088;2023-04-06T01:54:10;12.03;;;8.60;;
42600;SDS011;28229;48.856;9.088;2023-04-06T01:56:57;9.57;;;8.50;;
42600;SDS011;28229;48.856;9.088;2023-04-06T01:59:33;11.57;;;8.83;;
42600;SDS011;28229;48.856;9.088;2023-04-06T02:02:04;14.30;;;9.23;;
42600;SDS011;28229;48.856;9.088;2023-04-06T02:04:33;11.27;;;8.80;;
42600;SDS011;28229;48.856;9.088;2023-04-06T02:07:08;10.17;;;8.47;;
42600;SDS011;28229;48.856;9.088;2023-04-06T02:09:35;11.77;;;8.80;;
42600;SDS011;28229;48.856;9.088;2023-04-06T02:12:03;10.87;;;8.13;;
42600;SDS011;28229;48.856;9.088;2023-04-06T02:14:32;9.80;;;8.07;;
42600;SDS011;28229;48.856;9.088;2023-04-06T02:17:00;10.57;;;7.87;;
42600;SDS011;28229;48.856;9.088;2023-04-06T02:19:26;11.63;;;8.33;;
42600;SDS011;28229;48.856;9.088;2023-04-06T02:21:53;10.20;;;8.70;;
42600;SDS011;28229;48.856;9.088;2023-04-06T02:24:19;13.03;;;8.43;;
42600;SDS011;28229;48.856;9.088;2023-04-06T02:26:45;10.20;;;8.30;;
42600;SDS011;28229;48.856;9.088;2023-04-06T02:29:12;12.60;;;8.90;;
42600;SDS011;28229;48.856;9.088;2023-04-06T02:31:38;10.97;;;8.67;;
42600;SDS011;28229;48.856;9.088;2023-04-06T02:34:05;11.50;;;8.73;;
42600;SDS011;28229;48.856;9.088;2023-04-06T02:36:33;12.10;;;9.27;;
42600;SDS011;28229;48.856;9.088;2023-04-06T02:38:59;10.67;;;9.00;;
42600;SDS011;28229;48.856;9.088;2023-04-06T02:41:26;12.53;;;9.00;;
42600;SDS011;28229;48.856;9.088;2023-04-06T02:43:53;13.20;;;8.47;;
42600;SDS011;28229;48.856;9.088;2023-04-06T02:46:34;12.87;;;8.57;;
42600;SDS011;28229;48.856;9.088;2023-04-06T02:49:00;11.00;;;9.33;;
42600;SDS011;28229;48.856;9.088;2023-04-06T02:51:28;13.83;;;8.73;;
42600;SDS011;28229;48.856;9.088;2023-04-06T02:54:02;11.27;;;8.63;;
42600;SDS011;28229;48.856;9.088;2023-04-06T02:56:29;13.57;;;8.90;;
42600;SDS011;28229;48.856;9.088;2023-04-06T02:58:55;11.90;;;8.90;;
42600;SDS011;28229;48.856;9.088;2023-04-06T03:01:26;13.70;;;8.87;;
42600;SDS011;28229;48.856;9.088;2023-04-06T03:03:57;10.97;;;8.07;;
42600;SDS011;28229;48.856;9.088;2023-04-06T03:06:26;13.73;;;9.10;;
42600;SDS011;28229;48.856;9.088;2023-04-06T03:08:56;11.83;;;8.80;;
42600;SDS011;28229;48.856;9.088;2023-04-06T03:11:24;12.03;;;8.90;;
42600;SDS011;28229;48.856;9.088;2023-04-06T03:13:52;15.97;;;9.10;;
42600;SDS011;28229;48.856;9.088;2023-04-06T03:16:20;11.67;;;9.33;;
42600;SDS011;28229;48.856;9.088;2023-04-06T03:18:46;12.17;;;9.00;;
42600;SDS011;28229;48.856;9.088;2023-04-06T03:21:13;11.60;;;9.30;;
42600;SDS011;28229;48.856;9.088;2023-04-06T03:23:47;12.67;;;9.33;;
42600;SDS011;28229;48.856;9.088;2023-04-06T03:26:16;13.63;;;9.27;;
42600;SDS011;28229;48.856;9.088;2023-04-06T03:28:43;11.17;;;8.63;;
42600;SDS011;28229;48.856;9.088;2023-04-06T03:31:09;12.67;;;8.57;;
42600;SDS011;28229;48.856;9.088;2023-04-06T03:33:56;13.33;;;9.20;;
42600;SDS011;28229;48.856;9.088;2023-04-06T03:36:27;11.90;;;9.27;;
42600;SDS011;28229;48.856;9.088;2023-04-06T03:38:56;11.50;;;9.23;;
42600;SDS011;28229;48.856;9.088;2023-04-06T03:41:23;11.73;;;9.00;;
42600;SDS011;28229;48.856;9.088;2023-04-06T03:44:18;13.97;;;8.83;;
42600;SDS011;28229;48.856;9.088;2023-04-06T03:46:44;11.73;;;8.73;;
42600;SDS011;28229;48.856;9.088;2023-04-06T03:49:11;12.33;;;8.53;;
42600;SDS011;28229;48.856;9.088;2023-04-06T03:51:37;11.20;;;8.83;;
42600;SDS011;28229;48.856;9.088;2023-04-06T03:54:03;12.83;;;8.50;;
42600;SDS011;28229;48.856;9.088;2023-04-06T03:56:30;12.53;;;9.43;;
42600;SDS011;28229;48.856;9.088;2023-04-06T03:58:56;11.83;;;8.60;;
42600;SDS011;28229;48.856;9.088;2023-04-06T04:01:23;12.40;;;8.63;;
42600;SDS011;28229;48.856;9.088;2023-04-06T04:03:49;13.33;;;8.63;;
42600;SDS011;28229;48.856;9.088;2023-04-06T04:06:16;11.07;;;8.60;;
42600;SDS011;28229;48.856;9.088;2023-04-06T04:08:42;12.27;;;8.40;;
42600;SDS011;28229;48.856;9.088;2023-04-06T04:11:23;11.33;;;8.80;;
42600;SDS011;28229;48.856;9.088;2023-04-06T04:13:55;11.67;;;8.57;;
42600;SDS011;28229;48.856;9.088;2023-04-06T04:16:24;11.17;;;8.97;;
42600;SDS011;28229;48.856;9.088;2023-04-06T04:18:50;12.60;;;9.07;;
42600;SDS011;28229;48.856;9.088;2023-04-06T04:21:16;12.57;;;9.20;;
42600;SDS011;28229;48.856;9.088;2023-04-06T04:23:43;13.00;;;9.73;;
42600;SDS011;28229;48.856;9.088;2023-04-06T04:26:09;16.10;;;9.70;;
42600;SDS011;28229;48.856;9.088;2023-04-06T04:28:36;12.97;;;9.20;;
42600;SDS011;28229;48.856;9.088;2023-04-06T04:31:02;11.30;;;9.27;;
42600;SDS011;28229;48.856;9.088;2023-04-06T04:33:31;10.70;;;9.07;;
42600;SDS011;28229;48.856;9.088;2023-04-06T04:36:00;14.03;;;10.00;;
42600;SDS011;28229;48.856;9.088;2023-04-06T04:38:32;14.63;;;10.63;;
42600;SDS011;28229;48.856;9.088;2023-04-06T04:40:58;15.87;;;10.53;;
42600;SDS011;28229;48.856;9.088;2023-04-06T04:43:24;12.87;;;9.80;;
42600;SDS011;28229;48.856;9.088;2023-04-06T04:45:51;14.33;;;10.03;;
42600;SDS011;28229;48.856;9.088;2023-04-06T04:48:34;14.00;;;9.47;;
42600;SDS011;28229;48.856;9.088;2023-04-06T04:51:03;13.07;;;9.60;;
42600;SDS011;28229;48.856;9.088;2023-04-06T04:53:42;13.73;;;8.83;;
42600;SDS011;28229;48.856;9.088;2023-04-06T04:56:17;12.77;;;8.83;;
42600;SDS011;28229;48.856;9.088;2023-04-06T04:58:45;16.20;;;9.30;;
42600;SDS011;28229;48.856;9.088;2023-04-06T05:01:12;12.97;;;9.13;;
42600;SDS011;28229;48.856;9.088;2023-04-06T05:14:58;13.00;;;8.80;;
42600;SDS011;28229;48.856;9.088;2023-04-06T05:17:24;11.37;;;8.60;;
42600;SDS011;28229;48.856;9.088;2023-04-06T05:19:52;15.60;;;9.63;;
42600;SDS011;28229;48.856;9.088;2023-04-06T05:22:23;15.40;;;10.43;;
42600;SDS011;28229;48.856;9.088;2023-04-06T05:24:57;14.83;;;10.60;;
42600;SDS011;28229;48.856;9.088;2023-04-06T05:27:24;15.43;;;10.83;;
42600;SDS011;28229;48.856;9.088;2023-04-06T05:29:52;14.90;;;10.57;;
42600;SDS011;28229;48.856;9.088;2023-04-06T05:32:18;16.87;;;11.43;;
42600;SDS011;28229;48.856;9.088;2023-04-06T05:34:49;18.30;;;10.50;;
42600;SDS011;28229;48.856;9.088;2023-04-06T05:37:16;15.37;;;10.43;;
42600;SDS011;28229;48.856;9.088;2023-04-06T05:39:42;16.40;;;10.47;;
42600;SDS011;28229;48.856;9.088;2023-04-06T05:42:11;13.27;;;10.03;;
42600;SDS011;28229;48.856;9.088;2023-04-06T05:44:50;17.33;;;10.97;;
42600;SDS011;28229;48.856;9.088;2023-04-06T05:47:17;17.50;;;11.37;;
42600;SDS011;28229;48.856;9.088;2023-04-06T05:49:47;15.60;;;10.37;;
42600;SDS011;28229;48.856;9.088;2023-04-06T05:52:25;14.60;;;11.07;;
42600;SDS011;28229;48.856;9.088;2023-04-06T05:55:10;14.20;;;10.27;;
42600;SDS011;28229;48.856;9.088;2023-04-06T05:57:39;17.10;;;9.73;;
42600;SDS011;28229;48.856;9.088;2023-04-06T06:00:10;14.17;;;9.27;;
42600;SDS011;28229;48.856;9.088;2023-04-06T06:02:45;16.40;;;11.87;;
42600;SDS011;28229;48.856;9.088;2023-04-06T06:05:19;18.70;;;11.50;;
42600;SDS011;28229;48.856;9.088;2023-04-06T06:07:51;18.93;;;12.87;;
42600;SDS011;28229;48.856;9.088;2023-04-06T06:10:18;21.43;;;13.37;;
42600;SDS011;28229;48.856;9.088;2023-04-06T06:12:49;16.97;;;10.83;;
42600;SDS011;28229;48.856;9.088;2023-04-06T06:15:16;18.03;;;11.67;;
42600;SDS011;28229;48.856;9.088;2023-04-06T06:17:46;27.63;;;14.10;;
42600;SDS011;28229;48.856;9.088;2023-04-06T06:20:12;18.90;;;11.20;;
42600;SDS011;28229;48.856;9.088;2023-04-06T06:22:39;19.73;;;11.67;;
42600;SDS011;28229;48.856;9.088;2023-04-06T06:25:10;14.87;;;10.70;;
42600;SDS011;28229;48.856;9.088;2023-04-06T06:27:36;19.93;;;11.30;;
42600;SDS011;28229;48.856;9.088;2023-04-06T06:30:05;13.63;;;10.17;;
42600;SDS011;28229;48.856;9.088;2023-04-06T06:32:32;16.63;;;11.03;;
42600;SDS011;28229;48.856;9.088;2023-04-06T06:35:02;17.90;;;11.73;;
42600;SDS011;28229;48.856;9.088;2023-04-06T06:37:28;19.23;;;13.43;;
42600;SDS011;28229;48.856;9.088;2023-04-06T06:39:57;26.23;;;16.00;;
42600;SDS011;28229;48.856;9.088;2023-04-06T06:42:23;25.97;;;15.37;;
42600;SDS011;28229;48.856;9.088;2023-04-06T06:45:10;24.63;;;15.40;;
42600;SDS011;28229;48.856;9.088;2023-04-06T06:47:36;20.23;;;13.70;;
42600;SDS011;28229;48.856;9.088;2023-04-06T06:50:02;17.13;;;11.33;;
42600;SDS011;28229;48.856;9.088;2023-04-06T06:52:33;15.00;;;10.70;;
42600;SDS011;28229;48.856;9.088;2023-04-06T06:55:01;17.17;;;10.77;;
42600;SDS011;28229;48.856;9.088;2023-04-06T06:57:27;13.03;;;10.10;;
42600;SDS011;28229;48.856;9.088;2023-04-06T06:59:54;13.50;;;10.27;;
42600;SDS011;28229;48.856;9.088;2023-04-06T07:02:25;16.37;;;10.83;;
42600;SDS011;28229;48.856;9.088;2023-04-06T07:04:54;13.20;;;10.27;;
42600;SDS011;28229;48.856;9.088;2023-04-06T07:07:29;15.03;;;10.37;;
42600;SDS011;28229;48.856;9.088;2023-04-06T07:10:00;13.33;;;10.20;;
42600;SDS011;28229;48.856;9.088;2023-04-06T07:12:26;15.73;;;11.70;;
42600;SDS011;28229;48.856;9.088;2023-04-06T07:14:53;16.33;;;10.43;;
42600;SDS011;28229;48.856;9.088;2023-04-06T07:17:19;15.63;;;9.87;;
42600;SDS011;28229;48.856;9.088;2023-04-06T07:19:48;13.37;;;10.13;;
42600;SDS011;28229;48.856;9.088;2023-04-06T07:22:14;14.60;;;10.17;;
42600;SDS011;28229;48.856;9.088;2023-04-06T07:24:41;15.60;;;10.47;;
42600;SDS011;28229;48.856;9.088;2023-04-06T07:27:14;14.40;;;10.27;;
42600;SDS011;28229;48.856;9.088;2023-04-06T07:29:43;14.07;;;10.03;;
42600;SDS011;28229;48.856;9.088;2023-04-06T07:32:10;11.77;;;9.40;;
42600;SDS011;28229;48.856;9.088;2023-04-06T07:34:39;13.83;;;9.33;;
42600;SDS011;28229;48.856;9.088;2023-04-06T07:37:06;14.00;;;9.77;;
42600;SDS011;28229;48.856;9.088;2023-04-06T07:39:33;11.67;;;9.53;;
42600;SDS011;28229;48.856;9.088;2023-04-06T07:42:00;15.60;;;9.97;;
42600;SDS011;28229;48.856;9.088;2023-04-06T07:44:26;12.80;;;10.00;;
42600;SDS011;28229;48.856;9.088;2023-04-06T07:46:53;13.00;;;9.83;;
42600;SDS011;28229;48.856;9.088;2023-04-06T07:49:23;11.13;;;9.40;;
42600;SDS011;28229;48.856;9.088;2023-04-06T07:51:50;11.63;;;9.17;;
42600;SDS011;28229;48.856;9.088;2023-04-06T07:54:17;12.70;;;9.87;;
42600;SDS011;28229;48.856;9.088;2023-04-06T07:56:47;10.63;;;9.30;;
42600;SDS011;28229;48.856;9.088;2023-04-06T07:59:13;12.40;;;9.13;;
42600;SDS011;28229;48.856;9.088;2023-04-06T08:01:40;11.27;;;8.90;;
42600;SDS011;28229;48.856;9.088;2023-04-06T08:04:06;11.00;;;9.20;;
42600;SDS011;28229;48.856;9.088;2023-04-06T08:06:32;11.53;;;9.23;;
42600;SDS011;28229;48.856;9.088;2023-04-06T08:09:02;13.23;;;8.40;;
42600;SDS011;28229;48.856;9.088;2023-04-06T08:11:29;11.70;;;8.93;;
42600;SDS011;28229;48.856;9.088;2023-04-06T08:14:01;10.90;;;9.00;;
42600;SDS011;28229;48.856;9.088;2023-04-06T08:16:28;11.80;;;9.50;;
42600;SDS011;28229;48.856;9.088;2023-04-06T08:18:54;12.90;;;9.00;;
42600;SDS011;28229;48.856;9.088;2023-04-06T08:21:24;11.50;;;9.03;;
42600;SDS011;28229;48.856;9.088;2023-04-06T08:23:51;11.00;;;9.03;;
42600;SDS011;28229;48.856;9.088;2023-04-06T08:26:17;16.30;;;11.20;;
42600;SDS011;28229;48.856;9.088;2023-04-06T08:28:43;12.87;;;9.17;;
42600;SDS011;28229;48.856;9.088;2023-04-06T08:31:09;12.30;;;8.67;;
42600;SDS011;28229;48.856;9.088;2023-04-06T08:33:35;12.33;;;9.20;;
42600;SDS011;28229;48.856;9.088;2023-04-06T08:36:08;10.73;;;8.03;;
42600;SDS011;28229;48.856;9.088;2023-04-06T08:38:36;7.53;;;6.63;;
42600;SDS011;28229;48.856;9.088;2023-04-06T08:41:06;8.73;;;7.50;;
42600;SDS011;28229;48.856;9.088;2023-04-06T08:46:15;10.07;;;8.07;;
42600;SDS011;28229;48.856;9.088;2023-04-06T08:48:42;9.33;;;8.03;;
42600;SDS011;28229;48.856;9.088;2023-04-06T08:51:09;9.27;;;8.20;;
42600;SDS011;28229;48.856;9.088;2023-04-06T08:53:36;11.40;;;8.20;;
42600;SDS011;28229;48.856;9.088;2023-04-06T08:56:04;10.73;;;8.47;;
42600;SDS011;28229;48.856;9.088;2023-04-06T08:58:37;11.17;;;8.73;;
42600;SDS011;28229;48.856;9.088;2023-04-06T09:01:07;10.03;;;8.20;;
42600;SDS011;28229;48.856;9.088;2023-04-06T09:03:38;14.43;;;9.30;;
42600;SDS011;28229;48.856;9.088;2023-04-06T09:06:06;11.53;;;8.80;;
42600;SDS011;28229;48.856;9.088;2023-04-06T09:08:37;10.37;;;8.30;;
42600;SDS011;28229;48.856;9.088;2023-04-06T09:11:04;10.80;;;9.53;;
42600;SDS011;28229;48.856;9.088;2023-04-06T09:13:31;9.90;;;8.90;;
42600;SDS011;28229;48.856;9.088;2023-04-06T09:16:42;9.70;;;8.70;;
42600;SDS011;28229;48.856;9.088;2023-04-06T09:19:17;9.93;;;8.90;;
42600;SDS011;28229;48.856;9.088;2023-04-06T09:21:46;11.13;;;8.00;;
42600;SDS011;28229;48.856;9.088;2023-04-06T09:24:14;10.27;;;8.13;;
42600;SDS011;28229;48.856;9.088;2023-04-06T09:27:04;9.07;;;7.73;;
42600;SDS011;28229;48.856;9.088;2023-04-06T09:29:30;10.53;;;8.20;;
42600;SDS011;28229;48.856;9.088;2023-04-06T09:32:02;10.33;;;8.17;;
42600;SDS011;28229;48.856;9.088;2023-04-06T09:34:33;10.27;;;8.37;;
42600;SDS011;28229;48.856;9.088;2023-04-06T09:37:00;9.40;;;8.37;;
42600;SDS011;28229;48.856;9.088;2023-04-06T09:39:27;9.57;;;8.57;;
42600;SDS011;28229;48.856;9.088;2023-04-06T09:41:53;11.87;;;8.67;;
42600;SDS011;28229;48.856;9.088;2023-04-06T09:44:24;9.87;;;8.53;;
42600;SDS011;28229;48.856;9.088;2023-04-06T09:46:50;10.17;;;9.00;;
42600;SDS011;28229;48.856;9.088;2023-04-06T09:49:33;11.17;;;9.40;;
42600;SDS011;28229;48.856;9.088;2023-04-06T09:52:03;14.13;;;9.87;;
42600;SDS011;28229;48.856;9.088;2023-04-06T09:54:30;8.80;;;7.97;;
42600;SDS011;28229;48.856;9.088;2023-04-06T10:05:30;11.90;;;9.43;;
42600;SDS011;28229;48.856;9.088;2023-04-06T10:08:05;10.47;;;8.37;;
42600;SDS011;28229;48.856;9.088;2023-04-06T10:10:34;12.17;;;8.83;;
42600;SDS011;28229;48.856;9.088;2023-04-06T10:13:02;9.50;;;8.50;;
42600;SDS011;28229;48.856;9.088;2023-04-06T10:15:29;9.40;;;8.33;;
42600;SDS011;28229;48.856;9.088;2023-04-06T10:17:59;9.20;;;8.30;;
42600;SDS011;28229;48.856;9.088;2023-04-06T10:25:56;10.53;;;8.87;;
42600;SDS011;28229;48.856;9.088;2023-04-06T10:28:25;9.70;;;8.37;;
42600;SDS011;28229;48.856;9.088;2023-04-06T10:31:01;9.40;;;8.50;;
42600;SDS011;28229;48.856;9.088;2023-04-06T10:33:32;10.03;;;8.93;;
42600;SDS011;28229;48.856;9.088;2023-04-06T10:36:11;10.83;;;9.10;;
42600;SDS011;28229;48.856;9.088;2023-04-06T10:39:25;10.00;;;8.77;;
42600;SDS011;28229;48.856;9.088;2023-04-06T10:42:06;9.87;;;8.87;;
42600;SDS011;28229;48.856;9.088;2023-04-06T10:44:41;11.80;;;8.60;;
42600;SDS011;28229;48.856;9.088;2023-04-06T10:47:15;10.87;;;9.10;;
42600;SDS011;28229;48.856;9.088;2023-04-06T10:49:59;10.27;;;9.13;;
42600;SDS011;28229;48.856;9.088;2023-04-06T10:52:26;9.53;;;8.53;;
42600;SDS011;28229;48.856;9.088;2023-04-06T10:54:52;9.53;;;8.53;;
42600;SDS011;28229;48.856;9.088;2023-04-06T10:57:27;10.93;;;8.70;;
42600;SDS011;28229;48.856;9.088;2023-04-06T10:59:54;9.37;;;8.37;;
42600;SDS011;28229;48.856;9.088;2023-04-06T11:02:23;9.77;;;8.67;;
42600;SDS011;28229;48.856;9.088;2023-04-06T11:04:56;9.50;;;8.50;;
42600;SDS011;28229;48.856;9.088;2023-04-06T11:07:26;11.57;;;9.13;;
42600;SDS011;28229;48.856;9.088;2023-04-06T11:09:52;10.13;;;9.13;;
42600;SDS011;28229;48.856;9.088;2023-04-06T11:12:25;11.13;;;8.70;;
42600;SDS011;28229;48.856;9.088;2023-04-06T11:14:57;9.77;;;8.77;;
42600;SDS011;28229;48.856;9.088;2023-04-06T11:17:30;10.83;;;8.57;;
42600;SDS011;28229;48.856;9.088;2023-04-06T11:20:01;11.27;;;9.77;;
42600;SDS011;28229;48.856;9.088;2023-04-06T11:22:29;10.60;;;9.00;;
42600;SDS011;28229;48.856;9.088;2023-04-06T11:25:05;10.67;;;8.93;;
42600;SDS011;28229;48.856;9.088;2023-04-06T11:27:34;10.80;;;8.80;;
42600;SDS011;28229;48.856;9.088;2023-04-06T11:30:01;9.97;;;8.93;;
42600;SDS011;28229;48.856;9.088;2023-04-06T11:32:28;9.40;;;8.50;;
42600;SDS011;28229;48.856;9.088;2023-04-06T11:34:57;9.93;;;8.90;;
42600;SDS011;28229;48.856;9.088;2023-04-06T11:37:28;9.70;;;8.63;;
42600;SDS011;28229;48.856;9.088;2023-04-06T11:39:54;10.00;;;8.93;;
42600;SDS011;28229;48.856;9.088;2023-04-06T11:42:26;10.47;;;9.37;;
42600;SDS011;28229;48.856;9.088;2023-04-06T11:44:54;9.80;;;8.80;;
42600;SDS011;28229;48.856;9.088;2023-04-06T11:47:29;10.00;;;8.87;;
42600;SDS011;28229;48.856;9.088;2023-04-06T11:50:08;9.87;;;8.87;;
42600;SDS011;28229;48.856;9.088;2023-04-06T11:52:38;9.30;;;8.40;;
42600;SDS011;28229;48.856;9.088;2023-04-06T11:57:39;9.97;;;8.73;;
42600;SDS011;28229;48.856;9.088;2023-04-06T12:00:06;8.57;;;7.77;;
42600;SDS011;28229;48.856;9.088;2023-04-06T12:02:35;9.47;;;8.57;;
42600;SDS011;28229;48.856;9.088;2023-04-06T12:05:02;10.13;;;9.00;;
42600;SDS011;28229;48.856;9.088;2023-04-06T12:07:30;10.97;;;8.90;;
42600;SDS011;28229;48.856;9.088;2023-04-06T12:10:02;10.53;;;8.80;;
42600;SDS011;28229;48.856;9.088;2023-04-06T12:12:30;9.50;;;8.50;;
42600;SDS011;28229;48.856;9.088;2023-04-06T12:14:57;8.70;;;7.80;;
42600;SDS011;28229;48.856;9.088;2023-04-06T12:17:23;8.37;;;7.57;;
42600;SDS011;28229;48.856;9.088;2023-04-06T12:19:49;9.40;;;8.00;;
42600;SDS011;28229;48.856;9.088;2023-04-06T12:22:17;9.90;;;8.77;;
42600;SDS011;28229;48.856;9.088;2023-04-06T12:24:43;11.13;;;8.77;;
42600;SDS011;28229;48.856;9.088;2023-04-06T12:27:10;9.43;;;8.10;;
42600;SDS011;28229;48.856;9.088;2023-04-06T12:29:37;9.00;;;8.10;;
42600;SDS011;28229;48.856;9.088;2023-04-06T12:32:04;9.47;;;7.80;;
42600;SDS011;28229;48.856;9.088;2023-04-06T12:34:32;8.63;;;7.53;;
42600;SDS011;28229;48.856;9.088;2023-04-06T12:36:58;9.03;;;8.13;;
42600;SDS011;28229;48.856;9.088;2023-04-06T12:39:24;8.47;;;7.67;;
42600;SDS011;28229;48.856;9.088;2023-04-06T12:41:51;8.57;;;7.73;;
42600;SDS011;28229;48.856;9.088;2023-04-06T12:44:17;10.00;;;7.27;;
42600;SDS011;28229;48.856;9.088;2023-04-06T12:46:44;8.60;;;7.60;;
42600;SDS011;28229;48.856;9.088;2023-04-06T12:49:14;9.80;;;7.40;;
42600;SDS011;28229;48.856;9.088;2023-04-06T12:51:42;10.90;;;7.80;;
42600;SDS011;28229;48.856;9.088;2023-04-06T12:54:09;9.93;;;8.20;;
42600;SDS011;28229;48.856;9.088;2023-04-06T12:56:37;9.23;;;8.20;;
42600;SDS011;28229;48.856;9.088;2023-04-06T12:59:06;8.87;;;7.30;;
42600;SDS011;28229;48.856;9.088;2023-04-06T13:01:35;8.27;;;7.47;;
42600;SDS011;28229;48.856;9.088;2023-04-06T13:04:01;8.70;;;7.77;;
42600;SDS011;28229;48.856;9.088;2023-04-06T13:06:28;7.77;;;7.03;;
42600;SDS011;28229;48.856;9.088;2023-04-06T13:08:55;7.83;;;7.03;;
42600;SDS011;28229;48.856;9.088;2023-04-06T13:11:21;7.53;;;6.70;;
42600;SDS011;28229;48.856;9.088;2023-04-06T13:13:49;7.80;;;7.00;;
42600;SDS011;28229;48.856;9.088;2023-04-06T13:16:15;7.87;;;7.07;;
42600;SDS011;28229;48.856;9.088;2023-04-06T13:18:42;7.47;;;6.70;;
42600;SDS011;28229;48.856;9.088;2023-04-06T13:21:13;7.60;;;6.80;;
42600;SDS011;28229;48.856;9.088;2023-04-06T13:23:41;9.50;;;7.50;;
42600;SDS011;28229;48.856;9.088;2023-04-06T13:26:07;7.50;;;6.70;;
42600;SDS011;28229;48.856;9.088;2023-04-06T13:28:34;7.67;;;6.67;;
42600;SDS011;28229;48.856;9.088;2023-04-06T13:31:03;8.10;;;7.07;;
42600;SDS011;28229;48.856;9.088;2023-04-06T13:33:29;8.07;;;7.27;;
42600;SDS011;28229;48.856;9.088;2023-04-06T13:35:57;7.77;;;6.97;;
42600;SDS011;28229;48.856;9.088;2023-04-06T13:38:23;7.47;;;6.77;;
42600;SDS011;28229;48.856;9.088;2023-04-06T13:40:50;9.50;;;6.90;;
42600;SDS011;28229;48.856;9.088;2023-04-06T13:43:16;7.93;;;6.77;;
42600;SDS011;28229;48.856;9.088;2023-04-06T13:45:49;7.53;;;6.73;;
42600;SDS011;28229;48.856;9.088;2023-04-06T13:48:16;7.70;;;6.60;;
42600;SDS011;28229;48.856;9.088;2023-04-06T13:50:43;6.83;;;6.13;;
42600;SDS011;28229;48.856;9.088;2023-04-06T13:53:10;6.53;;;5.93;;
42600;SDS011;28229;48.856;9.088;2023-04-06T13:55:36;8.53;;;7.07;;
42600;SDS011;28229;48.856;9.088;2023-04-06T13:58:02;7.17;;;6.40;;
42600;SDS011;28229;48.856;9.088;2023-04-06T14:00:28;7.17;;;6.40;;
42600;SDS011;28229;48.856;9.088;2023-04-06T14:02:55;6.90;;;6.20;;
42600;SDS011;28229;48.856;9.088;2023-04-06T14:05:21;8.37;;;6.20;;
42600;SDS011;28229;48.856;9.088;2023-04-06T14:07:47;8.03;;;6.23;;
42600;SDS011;28229;48.856;9.088;2023-04-06T14:10:13;6.13;;;5.53;;
42600;SDS011;28229;48.856;9.088;2023-04-06T14:12:41;6.57;;;5.97;;
42600;SDS011;28229;48.856;9.088;2023-04-06T14:15:08;7.30;;;6.53;;
42600;SDS011;28229;48.856;9.088;2023-04-06T14:17:35;7.27;;;6.00;;
42600;SDS011;28229;48.856;9.088;2023-04-06T14:20:01;8.73;;;6.30;;
42600;SDS011;28229;48.856;9.088;2023-04-06T14:22:28;7.97;;;6.27;;
42600;SDS011;28229;48.856;9.088;2023-04-06T14:24:54;7.27;;;6.57;;
42600;SDS011;28229;48.856;9.088;2023-04-06T14:27:21;6.70;;;6.00;;
42600;SDS011;28229;48.856;9.088;2023-04-06T14:29:48;6.77;;;5.80;;
42600;SDS011;28229;48.856;9.088;2023-04-06T14:32:17;7.33;;;5.93;;
42600;SDS011;28229;48.856;9.088;2023-04-06T14:34:46;6.33;;;5.63;;
42600;SDS011;28229;48.856;9.088;2023-04-06T14:37:12;8.03;;;6.47;;
42600;SDS011;28229;48.856;9.088;2023-04-06T14:39:40;7.23;;;6.07;;
42600;SDS011;28229;48.856;9.088;2023-04-06T14:42:06;6.43;;;5.80;;
42600;SDS011;28229;48.856;9.088;2023-04-06T14:44:32;7.07;;;6.37;;
42600;SDS011;28229;48.856;9.088;2023-04-06T14:46:59;6.77;;;6.07;;
42600;SDS011;28229;48.856;9.088;2023-04-06T14:49:25;6.27;;;5.63;;
42600;SDS011;28229;48.856;9.088;2023-04-06T14:51:51;6.50;;;5.80;;
42600;SDS011;28229;48.856;9.088;2023-04-06T14:54:17;6.90;;;5.93;;
42600;SDS011;28229;48.856;9.088;2023-04-06T14:56:44;5.83;;;5.33;;
42600;SDS011;28229;48.856;9.088;2023-04-06T14:59:10;6.40;;;5.80;;
42600;SDS011;28229;48.856;9.088;2023-04-06T15:01:37;6.47;;;5.87;;
42600;SDS011;28229;48.856;9.088;2023-04-06T15:04:03;6.87;;;5.53;;
42600;SDS011;28229;48.856;9.088;2023-04-06T15:06:30;6.47;;;5.47;;
42600;SDS011;28229;48.856;9.088;2023-04-06T15:08:56;6.10;;;5.23;;
42600;SDS011;28229;48.856;9.088;2023-04-06T15:11:22;7.70;;;6.70;;
42600;SDS011;28229;48.856;9.088;2023-04-06T15:13:49;8.13;;;6.93;;
42600;SDS011;28229;48.856;9.088;2023-04-06T15:16:15;8.80;;;7.10;;
42600;SDS011;28229;48.856;9.088;2023-04-06T15:18:58;8.37;;;6.10;;